Etusivu
METAR-TAF:

METAR-TAF

Lentoasemat :

Pointe-Noire, Kongo

Leveyspiiri: 04-49S, Pituuspiiri: 011-54E, korkeus merenpinnasta: 17 m

METAR: puuttuu

Aika: 18:46 (17:46 UTC)

Sääennuste

Tämä raportti tehtiin 46 minuuttia sitten, kello 17.00 UTC
Ennuste voimassa 25. päivästä klo 18 UTC - 26. päivään klo 18 UTC
Tuuli 4 kn etelästä/lounaasta
Näkyvyys: 9000 m
Hajanaisia pilviä 1500 ft:n korkeudessa
Tulossa
26. päivästä klo 12 UTC - 26. päivään klo 14 UTC
Hajanaisia pilviä 2000 ft:n korkeudessa
Muutamia pilviä 3000 ft:n korkeudessa, Cumulonimbus.

TAF: FCPP 251700Z 2518/2618 20004KT 9000 SCT015 BECMG 2612/2614 SCT020 FEW030CB

Säähavainnot ja -ennusteet yli 4000 lentoasemalta (METAR- ja TAF-raportit).

Käytössä olevat sääasemat on merkitty karttaan keltaisilla ja punaisilla pisteillä.

Aseta hiiri pisteen päälle nähdäksesi sääaseman nimen.

Klikkaa sitten nähdäksesi säähavainnot ja -ennusteet.

Kartan vaihtaminen: klikkaa mustalla rastilla varustettuja vihreitä pisteitä, niin voit zoomata sisään; viivalla varustettua vihreää pistettä, niin voit zoomata ulos tai vihreitä nuolia, niin pääset viereisille kartoille.


METAR-TAF: